sensor_id;sensor_type;location;lat;lon;timestamp;P1;durP1;ratioP1;P2;durP2;ratioP2
6207;SDS011;3137;51.550;7.060;2023-09-19T00:00:20;9.27;;;2.70;;
6207;SDS011;3137;51.550;7.060;2023-09-19T00:05:26;5.13;;;3.00;;
6207;SDS011;3137;51.550;7.060;2023-09-19T00:07:54;12.47;;;2.80;;
6207;SDS011;3137;51.550;7.060;2023-09-19T00:10:25;2.50;;;2.37;;
6207;SDS011;3137;51.550;7.060;2023-09-19T00:12:53;5.47;;;2.73;;
6207;SDS011;3137;51.550;7.060;2023-09-19T00:15:25;10.10;;;2.67;;
6207;SDS011;3137;51.550;7.060;2023-09-19T00:17:55;10.63;;;2.93;;
6207;SDS011;3137;51.550;7.060;2023-09-19T00:20:23;6.97;;;3.10;;
6207;SDS011;3137;51.550;7.060;2023-09-19T00:22:50;5.20;;;3.00;;
6207;SDS011;3137;51.550;7.060;2023-09-19T00:25:18;4.23;;;2.30;;
6207;SDS011;3137;51.550;7.060;2023-09-19T00:27:44;12.17;;;2.53;;
6207;SDS011;3137;51.550;7.060;2023-09-19T00:30:11;10.40;;;2.33;;
6207;SDS011;3137;51.550;7.060;2023-09-19T00:32:47;11.17;;;2.93;;
6207;SDS011;3137;51.550;7.060;2023-09-19T00:35:15;7.53;;;3.63;;
6207;SDS011;3137;51.550;7.060;2023-09-19T00:37:42;6.83;;;2.83;;
6207;SDS011;3137;51.550;7.060;2023-09-19T00:40:10;6.43;;;2.53;;
6207;SDS011;3137;51.550;7.060;2023-09-19T00:42:41;4.37;;;2.57;;
6207;SDS011;3137;51.550;7.060;2023-09-19T00:45:09;8.17;;;2.97;;
6207;SDS011;3137;51.550;7.060;2023-09-19T00:47:48;9.87;;;2.90;;
6207;SDS011;3137;51.550;7.060;2023-09-19T00:50:17;7.27;;;2.63;;
6207;SDS011;3137;51.550;7.060;2023-09-19T00:52:48;4.30;;;2.27;;
6207;SDS011;3137;51.550;7.060;2023-09-19T00:55:17;5.03;;;2.83;;
6207;SDS011;3137;51.550;7.060;2023-09-19T00:57:46;5.97;;;3.27;;
6207;SDS011;3137;51.550;7.060;2023-09-19T01:00:13;14.83;;;4.17;;
6207;SDS011;3137;51.550;7.060;2023-09-19T01:02:42;8.40;;;2.87;;
6207;SDS011;3137;51.550;7.060;2023-09-19T01:05:12;6.23;;;3.27;;
6207;SDS011;3137;51.550;7.060;2023-09-19T01:07:38;10.40;;;3.70;;
6207;SDS011;3137;51.550;7.060;2023-09-19T01:10:08;13.80;;;3.30;;
6207;SDS011;3137;51.550;7.060;2023-09-19T01:20:41;4.03;;;2.93;;
6207;SDS011;3137;51.550;7.060;2023-09-19T01:23:18;5.00;;;3.00;;
6207;SDS011;3137;51.550;7.060;2023-09-19T01:31:39;9.60;;;2.90;;
6207;SDS011;3137;51.550;7.060;2023-09-19T01:34:09;6.30;;;3.25;;
6207;SDS011;3137;51.550;7.060;2023-09-19T01:36:36;12.77;;;3.57;;
6207;SDS011;3137;51.550;7.060;2023-09-19T01:39:07;13.30;;;3.63;;
6207;SDS011;3137;51.550;7.060;2023-09-19T01:41:39;8.90;;;3.83;;
6207;SDS011;3137;51.550;7.060;2023-09-19T01:44:17;9.13;;;3.50;;
6207;SDS011;3137;51.550;7.060;2023-09-19T01:46:50;3.93;;;2.97;;
6207;SDS011;3137;51.550;7.060;2023-09-19T01:52:12;8.40;;;3.50;;
6207;SDS011;3137;51.550;7.060;2023-09-19T01:54:41;12.60;;;2.87;;
6207;SDS011;3137;51.550;7.060;2023-09-19T01:57:30;6.53;;;2.67;;
6207;SDS011;3137;51.550;7.060;2023-09-19T02:00:05;3.27;;;3.07;;
6207;SDS011;3137;51.550;7.060;2023-09-19T02:02:40;4.23;;;2.50;;
6207;SDS011;3137;51.550;7.060;2023-09-19T02:05:10;7.63;;;3.27;;
6207;SDS011;3137;51.550;7.060;2023-09-19T02:07:38;6.27;;;2.63;;
6207;SDS011;3137;51.550;7.060;2023-09-19T02:10:06;5.27;;;2.70;;
6207;SDS011;3137;51.550;7.060;2023-09-19T02:12:33;10.53;;;3.37;;
6207;SDS011;3137;51.550;7.060;2023-09-19T02:15:02;10.63;;;2.90;;
6207;SDS011;3137;51.550;7.060;2023-09-19T02:17:29;4.10;;;2.67;;
6207;SDS011;3137;51.550;7.060;2023-09-19T02:19:57;6.47;;;2.97;;
6207;SDS011;3137;51.550;7.060;2023-09-19T02:22:25;11.63;;;3.43;;
6207;SDS011;3137;51.550;7.060;2023-09-19T02:24:52;11.57;;;3.33;;
6207;SDS011;3137;51.550;7.060;2023-09-19T02:27:19;5.83;;;3.13;;
6207;SDS011;3137;51.550;7.060;2023-09-19T02:29:46;8.43;;;3.00;;
6207;SDS011;3137;51.550;7.060;2023-09-19T02:32:13;11.70;;;2.97;;
6207;SDS011;3137;51.550;7.060;2023-09-19T02:34:39;4.70;;;2.90;;
6207;SDS011;3137;51.550;7.060;2023-09-19T02:37:06;6.33;;;3.00;;
6207;SDS011;3137;51.550;7.060;2023-09-19T02:39:32;11.70;;;3.77;;
6207;SDS011;3137;51.550;7.060;2023-09-19T02:41:59;7.07;;;3.27;;
6207;SDS011;3137;51.550;7.060;2023-09-19T02:44:25;4.30;;;2.73;;
6207;SDS011;3137;51.550;7.060;2023-09-19T02:46:52;4.13;;;3.40;;
6207;SDS011;3137;51.550;7.060;2023-09-19T02:49:18;6.67;;;2.77;;
6207;SDS011;3137;51.550;7.060;2023-09-19T02:51:45;7.70;;;2.70;;
6207;SDS011;3137;51.550;7.060;2023-09-19T02:54:14;7.77;;;2.47;;
6207;SDS011;3137;51.550;7.060;2023-09-19T02:56:42;5.73;;;3.47;;
6207;SDS011;3137;51.550;7.060;2023-09-19T02:59:08;8.43;;;3.83;;
6207;SDS011;3137;51.550;7.060;2023-09-19T03:01:36;4.00;;;2.73;;
6207;SDS011;3137;51.550;7.060;2023-09-19T03:04:04;6.20;;;2.87;;
6207;SDS011;3137;51.550;7.060;2023-09-19T03:06:32;7.37;;;2.63;;
6207;SDS011;3137;51.550;7.060;2023-09-19T03:08:59;11.03;;;3.33;;
6207;SDS011;3137;51.550;7.060;2023-09-19T03:11:26;3.73;;;2.67;;
6207;SDS011;3137;51.550;7.060;2023-09-19T03:13:56;3.30;;;2.50;;
6207;SDS011;3137;51.550;7.060;2023-09-19T03:16:22;7.53;;;3.20;;
6207;SDS011;3137;51.550;7.060;2023-09-19T03:18:51;4.93;;;3.00;;
6207;SDS011;3137;51.550;7.060;2023-09-19T03:21:18;3.87;;;2.60;;
6207;SDS011;3137;51.550;7.060;2023-09-19T03:23:45;4.73;;;2.80;;
6207;SDS011;3137;51.550;7.060;2023-09-19T03:26:12;6.10;;;2.47;;
6207;SDS011;3137;51.550;7.060;2023-09-19T03:28:40;13.30;;;2.67;;
6207;SDS011;3137;51.550;7.060;2023-09-19T03:31:07;7.20;;;2.83;;
6207;SDS011;3137;51.550;7.060;2023-09-19T03:33:35;6.10;;;3.33;;
6207;SDS011;3137;51.550;7.060;2023-09-19T03:36:02;5.33;;;2.87;;
6207;SDS011;3137;51.550;7.060;2023-09-19T03:38:32;6.00;;;3.03;;
6207;SDS011;3137;51.550;7.060;2023-09-19T03:41:00;10.07;;;2.67;;
6207;SDS011;3137;51.550;7.060;2023-09-19T03:43:28;6.07;;;2.67;;
6207;SDS011;3137;51.550;7.060;2023-09-19T03:45:54;4.07;;;2.57;;
6207;SDS011;3137;51.550;7.060;2023-09-19T03:48:22;12.73;;;2.70;;
6207;SDS011;3137;51.550;7.060;2023-09-19T03:50:50;13.80;;;3.20;;
6207;SDS011;3137;51.550;7.060;2023-09-19T03:53:17;8.03;;;2.57;;
6207;SDS011;3137;51.550;7.060;2023-09-19T03:55:44;8.90;;;3.27;;
6207;SDS011;3137;51.550;7.060;2023-09-19T03:58:12;10.87;;;3.23;;
6207;SDS011;3137;51.550;7.060;2023-09-19T04:00:39;5.67;;;2.23;;
6207;SDS011;3137;51.550;7.060;2023-09-19T04:03:05;3.97;;;2.50;;
6207;SDS011;3137;51.550;7.060;2023-09-19T04:05:33;10.17;;;2.63;;
6207;SDS011;3137;51.550;7.060;2023-09-19T04:07:59;3.27;;;2.97;;
6207;SDS011;3137;51.550;7.060;2023-09-19T04:10:26;5.90;;;2.37;;
6207;SDS011;3137;51.550;7.060;2023-09-19T04:12:53;8.27;;;3.27;;
6207;SDS011;3137;51.550;7.060;2023-09-19T04:15:21;9.43;;;2.90;;
6207;SDS011;3137;51.550;7.060;2023-09-19T04:17:52;14.83;;;3.50;;
6207;SDS011;3137;51.550;7.060;2023-09-19T04:20:18;12.93;;;3.20;;
6207;SDS011;3137;51.550;7.060;2023-09-19T04:22:45;8.80;;;2.77;;
6207;SDS011;3137;51.550;7.060;2023-09-19T04:25:13;9.47;;;3.43;;
6207;SDS011;3137;51.550;7.060;2023-09-19T04:27:39;26.40;;;3.80;;
6207;SDS011;3137;51.550;7.060;2023-09-19T04:30:07;7.80;;;3.03;;
6207;SDS011;3137;51.550;7.060;2023-09-19T04:32:38;7.17;;;3.40;;
6207;SDS011;3137;51.550;7.060;2023-09-19T04:35:08;10.60;;;3.07;;
6207;SDS011;3137;51.550;7.060;2023-09-19T04:37:39;4.10;;;2.73;;
6207;SDS011;3137;51.550;7.060;2023-09-19T04:40:07;5.20;;;3.70;;
6207;SDS011;3137;51.550;7.060;2023-09-19T04:42:45;8.60;;;3.73;;
6207;SDS011;3137;51.550;7.060;2023-09-19T04:45:23;7.27;;;3.13;;
6207;SDS011;3137;51.550;7.060;2023-09-19T04:47:49;15.77;;;4.27;;
6207;SDS011;3137;51.550;7.060;2023-09-19T04:50:16;6.87;;;3.27;;
6207;SDS011;3137;51.550;7.060;2023-09-19T04:52:43;3.77;;;3.47;;
6207;SDS011;3137;51.550;7.060;2023-09-19T04:55:14;8.53;;;2.80;;
6207;SDS011;3137;51.550;7.060;2023-09-19T04:57:47;5.03;;;2.83;;
6207;SDS011;3137;51.550;7.060;2023-09-19T05:00:15;8.83;;;3.50;;
6207;SDS011;3137;51.550;7.060;2023-09-19T05:02:52;5.27;;;2.57;;
6207;SDS011;3137;51.550;7.060;2023-09-19T05:05:23;8.63;;;2.63;;
6207;SDS011;3137;51.550;7.060;2023-09-19T05:07:52;11.67;;;2.97;;
6207;SDS011;3137;51.550;7.060;2023-09-19T05:10:20;5.83;;;2.97;;
6207;SDS011;3137;51.550;7.060;2023-09-19T05:12:47;7.70;;;3.47;;
6207;SDS011;3137;51.550;7.060;2023-09-19T05:15:17;4.77;;;2.70;;
6207;SDS011;3137;51.550;7.060;2023-09-19T05:17:50;10.27;;;3.10;;
6207;SDS011;3137;51.550;7.060;2023-09-19T05:20:23;10.80;;;2.73;;
6207;SDS011;3137;51.550;7.060;2023-09-19T05:23:02;12.73;;;3.23;;
6207;SDS011;3137;51.550;7.060;2023-09-19T05:25:32;13.80;;;2.80;;
6207;SDS011;3137;51.550;7.060;2023-09-19T05:27:59;9.37;;;2.87;;
6207;SDS011;3137;51.550;7.060;2023-09-19T05:30:26;10.47;;;2.80;;
6207;SDS011;3137;51.550;7.060;2023-09-19T05:32:56;4.17;;;2.80;;
6207;SDS011;3137;51.550;7.060;2023-09-19T05:35:23;4.30;;;3.10;;
6207;SDS011;3137;51.550;7.060;2023-09-19T05:37:51;3.43;;;2.57;;
6207;SDS011;3137;51.550;7.060;2023-09-19T05:40:18;8.87;;;2.70;;
6207;SDS011;3137;51.550;7.060;2023-09-19T05:42:45;24.50;;;4.87;;
6207;SDS011;3137;51.550;7.060;2023-09-19T05:45:13;14.13;;;2.63;;
6207;SDS011;3137;51.550;7.060;2023-09-19T05:47:40;3.73;;;3.43;;
6207;SDS011;3137;51.550;7.060;2023-09-19T05:50:11;10.17;;;3.43;;
6207;SDS011;3137;51.550;7.060;2023-09-19T05:52:38;14.80;;;3.90;;
6207;SDS011;3137;51.550;7.060;2023-09-19T05:55:05;7.87;;;3.00;;
6207;SDS011;3137;51.550;7.060;2023-09-19T05:57:34;9.83;;;3.07;;
6207;SDS011;3137;51.550;7.060;2023-09-19T06:00:01;11.07;;;3.20;;
6207;SDS011;3137;51.550;7.060;2023-09-19T06:02:37;9.80;;;2.83;;
6207;SDS011;3137;51.550;7.060;2023-09-19T06:05:04;17.90;;;3.23;;
6207;SDS011;3137;51.550;7.060;2023-09-19T06:07:37;11.83;;;3.13;;
6207;SDS011;3137;51.550;7.060;2023-09-19T06:10:04;7.93;;;2.87;;
6207;SDS011;3137;51.550;7.060;2023-09-19T06:12:37;12.60;;;3.17;;
6207;SDS011;3137;51.550;7.060;2023-09-19T06:15:10;15.93;;;3.50;;
6207;SDS011;3137;51.550;7.060;2023-09-19T06:17:49;10.73;;;3.47;;
6207;SDS011;3137;51.550;7.060;2023-09-19T06:20:16;18.27;;;3.57;;
6207;SDS011;3137;51.550;7.060;2023-09-19T06:22:44;10.63;;;4.43;;
6207;SDS011;3137;51.550;7.060;2023-09-19T06:25:12;15.20;;;4.17;;
6207;SDS011;3137;51.550;7.060;2023-09-19T06:27:46;5.20;;;3.07;;
6207;SDS011;3137;51.550;7.060;2023-09-19T06:30:13;3.40;;;3.10;;
6207;SDS011;3137;51.550;7.060;2023-09-19T06:32:40;16.83;;;3.27;;
6207;SDS011;3137;51.550;7.060;2023-09-19T06:35:14;2.57;;;2.40;;
6207;SDS011;3137;51.550;7.060;2023-09-19T06:37:42;7.50;;;3.40;;
6207;SDS011;3137;51.550;7.060;2023-09-19T06:40:10;12.47;;;3.67;;
6207;SDS011;3137;51.550;7.060;2023-09-19T06:42:41;10.37;;;3.37;;
6207;SDS011;3137;51.550;7.060;2023-09-19T06:45:09;14.13;;;3.87;;
6207;SDS011;3137;51.550;7.060;2023-09-19T06:47:37;13.93;;;3.27;;
6207;SDS011;3137;51.550;7.060;2023-09-19T06:50:04;11.63;;;3.17;;
6207;SDS011;3137;51.550;7.060;2023-09-19T06:52:32;3.20;;;3.00;;
6207;SDS011;3137;51.550;7.060;2023-09-19T06:55:01;7.07;;;3.13;;
6207;SDS011;3137;51.550;7.060;2023-09-19T06:57:29;21.23;;;3.40;;
6207;SDS011;3137;51.550;7.060;2023-09-19T06:59:56;12.90;;;4.03;;
6207;SDS011;3137;51.550;7.060;2023-09-19T07:02:23;4.23;;;3.53;;
6207;SDS011;3137;51.550;7.060;2023-09-19T07:04:50;8.00;;;2.80;;
6207;SDS011;3137;51.550;7.060;2023-09-19T07:07:16;14.77;;;3.17;;
6207;SDS011;3137;51.550;7.060;2023-09-19T07:09:43;7.50;;;4.00;;
6207;SDS011;3137;51.550;7.060;2023-09-19T07:12:10;6.00;;;2.90;;
6207;SDS011;3137;51.550;7.060;2023-09-19T07:14:38;15.80;;;3.70;;
6207;SDS011;3137;51.550;7.060;2023-09-19T07:17:04;7.13;;;4.03;;
6207;SDS011;3137;51.550;7.060;2023-09-19T07:19:31;7.80;;;3.00;;
6207;SDS011;3137;51.550;7.060;2023-09-19T07:21:57;9.07;;;3.20;;
6207;SDS011;3137;51.550;7.060;2023-09-19T07:24:25;11.87;;;3.33;;
6207;SDS011;3137;51.550;7.060;2023-09-19T07:26:53;10.13;;;3.67;;
6207;SDS011;3137;51.550;7.060;2023-09-19T07:29:19;3.43;;;2.97;;
6207;SDS011;3137;51.550;7.060;2023-09-19T07:31:46;13.93;;;2.90;;
6207;SDS011;3137;51.550;7.060;2023-09-19T07:34:13;7.47;;;2.80;;
6207;SDS011;3137;51.550;7.060;2023-09-19T07:36:40;9.93;;;2.93;;
6207;SDS011;3137;51.550;7.060;2023-09-19T07:39:08;10.03;;;2.97;;
6207;SDS011;3137;51.550;7.060;2023-09-19T07:41:48;10.10;;;2.30;;
6207;SDS011;3137;51.550;7.060;2023-09-19T07:44:16;6.97;;;2.73;;
6207;SDS011;3137;51.550;7.060;2023-09-19T07:46:43;13.83;;;2.93;;
6207;SDS011;3137;51.550;7.060;2023-09-19T07:49:10;7.17;;;3.10;;
6207;SDS011;3137;51.550;7.060;2023-09-19T07:51:37;6.43;;;2.63;;
6207;SDS011;3137;51.550;7.060;2023-09-19T07:54:04;6.50;;;2.80;;
6207;SDS011;3137;51.550;7.060;2023-09-19T07:56:31;11.27;;;3.40;;
6207;SDS011;3137;51.550;7.060;2023-09-19T07:58:58;12.87;;;3.90;;
6207;SDS011;3137;51.550;7.060;2023-09-19T08:01:25;11.07;;;3.03;;
6207;SDS011;3137;51.550;7.060;2023-09-19T08:03:53;11.77;;;2.90;;
6207;SDS011;3137;51.550;7.060;2023-09-19T08:06:20;4.43;;;2.80;;
6207;SDS011;3137;51.550;7.060;2023-09-19T08:08:46;12.47;;;2.67;;
6207;SDS011;3137;51.550;7.060;2023-09-19T08:11:13;6.20;;;3.13;;
6207;SDS011;3137;51.550;7.060;2023-09-19T08:13:47;11.13;;;3.27;;
6207;SDS011;3137;51.550;7.060;2023-09-19T08:16:15;10.30;;;3.70;;
6207;SDS011;3137;51.550;7.060;2023-09-19T08:18:46;7.13;;;2.33;;
6207;SDS011;3137;51.550;7.060;2023-09-19T08:21:14;11.20;;;3.60;;
6207;SDS011;3137;51.550;7.060;2023-09-19T08:23:43;8.20;;;2.67;;
6207;SDS011;3137;51.550;7.060;2023-09-19T08:26:10;9.37;;;3.60;;
6207;SDS011;3137;51.550;7.060;2023-09-19T08:28:37;4.07;;;3.53;;
6207;SDS011;3137;51.550;7.060;2023-09-19T08:31:07;10.07;;;3.23;;
6207;SDS011;3137;51.550;7.060;2023-09-19T08:33:36;11.40;;;3.73;;
6207;SDS011;3137;51.550;7.060;2023-09-19T08:36:04;9.90;;;3.13;;
6207;SDS011;3137;51.550;7.060;2023-09-19T08:38:35;8.00;;;3.00;;
6207;SDS011;3137;51.550;7.060;2023-09-19T08:41:05;10.03;;;3.10;;
6207;SDS011;3137;51.550;7.060;2023-09-19T08:43:34;7.97;;;3.20;;
6207;SDS011;3137;51.550;7.060;2023-09-19T08:46:09;11.30;;;2.43;;
6207;SDS011;3137;51.550;7.060;2023-09-19T08:48:39;16.37;;;3.40;;
6207;SDS011;3137;51.550;7.060;2023-09-19T08:51:12;7.47;;;2.83;;
6207;SDS011;3137;51.550;7.060;2023-09-19T08:53:54;8.10;;;3.57;;
6207;SDS011;3137;51.550;7.060;2023-09-19T08:56:30;7.17;;;2.13;;
6207;SDS011;3137;51.550;7.060;2023-09-19T08:58:59;4.60;;;2.67;;
6207;SDS011;3137;51.550;7.060;2023-09-19T09:01:29;10.20;;;3.13;;
6207;SDS011;3137;51.550;7.060;2023-09-19T09:03:58;8.13;;;3.10;;
6207;SDS011;3137;51.550;7.060;2023-09-19T09:06:25;3.87;;;2.57;;
6207;SDS011;3137;51.550;7.060;2023-09-19T09:08:54;15.47;;;3.47;;
6207;SDS011;3137;51.550;7.060;2023-09-19T09:11:22;18.23;;;3.30;;
6207;SDS011;3137;51.550;7.060;2023-09-19T09:13:51;14.13;;;3.50;;
6207;SDS011;3137;51.550;7.060;2023-09-19T09:16:17;8.67;;;3.03;;
6207;SDS011;3137;51.550;7.060;2023-09-19T09:18:45;11.97;;;2.93;;
6207;SDS011;3137;51.550;7.060;2023-09-19T09:21:12;8.83;;;2.93;;
6207;SDS011;3137;51.550;7.060;2023-09-19T09:23:40;7.47;;;2.93;;
6207;SDS011;3137;51.550;7.060;2023-09-19T09:26:07;10.87;;;2.97;;
6207;SDS011;3137;51.550;7.060;2023-09-19T09:28:35;8.27;;;3.03;;
6207;SDS011;3137;51.550;7.060;2023-09-19T09:31:25;13.27;;;3.17;;
6207;SDS011;3137;51.550;7.060;2023-09-19T09:33:53;6.93;;;3.20;;
6207;SDS011;3137;51.550;7.060;2023-09-19T09:36:38;6.37;;;3.20;;
6207;SDS011;3137;51.550;7.060;2023-09-19T09:39:06;14.03;;;2.77;;
6207;SDS011;3137;51.550;7.060;2023-09-19T09:41:44;10.40;;;2.73;;
6207;SDS011;3137;51.550;7.060;2023-09-19T09:44:12;4.93;;;2.70;;
6207;SDS011;3137;51.550;7.060;2023-09-19T09:46:45;8.53;;;2.80;;
6207;SDS011;3137;51.550;7.060;2023-09-19T09:49:22;8.67;;;2.53;;
6207;SDS011;3137;51.550;7.060;2023-09-19T09:52:07;7.03;;;2.60;;
6207;SDS011;3137;51.550;7.060;2023-09-19T09:55:00;12.70;;;2.47;;
6207;SDS011;3137;51.550;7.060;2023-09-19T09:57:33;5.10;;;2.90;;
6207;SDS011;3137;51.550;7.060;2023-09-19T10:00:01;10.33;;;2.80;;
6207;SDS011;3137;51.550;7.060;2023-09-19T10:02:37;8.77;;;2.87;;
6207;SDS011;3137;51.550;7.060;2023-09-19T10:05:13;8.70;;;3.50;;
6207;SDS011;3137;51.550;7.060;2023-09-19T10:07:54;6.47;;;2.93;;
6207;SDS011;3137;51.550;7.060;2023-09-19T10:10:35;2.43;;;2.23;;
6207;SDS011;3137;51.550;7.060;2023-09-19T10:13:05;11.37;;;3.73;;
6207;SDS011;3137;51.550;7.060;2023-09-19T10:15:34;7.03;;;2.97;;
6207;SDS011;3137;51.550;7.060;2023-09-19T10:18:05;15.60;;;3.23;;
6207;SDS011;3137;51.550;7.060;2023-09-19T10:20:35;7.63;;;2.03;;
6207;SDS011;3137;51.550;7.060;2023-09-19T10:23:08;4.83;;;2.77;;
6207;SDS011;3137;51.550;7.060;2023-09-19T10:25:40;9.57;;;2.80;;
6207;SDS011;3137;51.550;7.060;2023-09-19T10:28:09;6.33;;;3.10;;
6207;SDS011;3137;51.550;7.060;2023-09-19T10:30:45;3.93;;;3.07;;
6207;SDS011;3137;51.550;7.060;2023-09-19T10:33:15;7.10;;;2.80;;
6207;SDS011;3137;51.550;7.060;2023-09-19T10:35:44;10.07;;;3.10;;
6207;SDS011;3137;51.550;7.060;2023-09-19T10:38:17;4.67;;;2.80;;
6207;SDS011;3137;51.550;7.060;2023-09-19T10:40:51;12.10;;;3.90;;
6207;SDS011;3137;51.550;7.060;2023-09-19T10:43:19;12.17;;;3.10;;
6207;SDS011;3137;51.550;7.060;2023-09-19T10:45:48;11.90;;;3.33;;
6207;SDS011;3137;51.550;7.060;2023-09-19T10:48:19;3.80;;;2.30;;
6207;SDS011;3137;51.550;7.060;2023-09-19T10:50:50;3.77;;;2.80;;
6207;SDS011;3137;51.550;7.060;2023-09-19T10:53:26;9.60;;;2.67;;
6207;SDS011;3137;51.550;7.060;2023-09-19T10:55:56;3.97;;;2.40;;
6207;SDS011;3137;51.550;7.060;2023-09-19T10:58:34;3.20;;;1.93;;
6207;SDS011;3137;51.550;7.060;2023-09-19T11:01:05;14.30;;;2.80;;
6207;SDS011;3137;51.550;7.060;2023-09-19T11:03:33;10.03;;;2.60;;
6207;SDS011;3137;51.550;7.060;2023-09-19T11:06:00;9.53;;;2.33;;
6207;SDS011;3137;51.550;7.060;2023-09-19T11:08:50;5.13;;;3.03;;
6207;SDS011;3137;51.550;7.060;2023-09-19T11:11:38;4.57;;;2.43;;
6207;SDS011;3137;51.550;7.060;2023-09-19T11:30:41;2.43;;;2.17;;
6207;SDS011;3137;51.550;7.060;2023-09-19T11:33:26;10.20;;;2.47;;
6207;SDS011;3137;51.550;7.060;2023-09-19T11:36:16;2.73;;;2.53;;
6207;SDS011;3137;51.550;7.060;2023-09-19T11:43:48;4.53;;;2.20;;
6207;SDS011;3137;51.550;7.060;2023-09-19T11:46:21;5.40;;;2.40;;
6207;SDS011;3137;51.550;7.060;2023-09-19T11:48:48;11.20;;;2.43;;
6207;SDS011;3137;51.550;7.060;2023-09-19T11:51:22;10.13;;;2.27;;
6207;SDS011;3137;51.550;7.060;2023-09-19T11:53:54;4.63;;;2.10;;
6207;SDS011;3137;51.550;7.060;2023-09-19T11:56:25;8.47;;;3.40;;
6207;SDS011;3137;51.550;7.060;2023-09-19T11:58:55;1.83;;;1.83;;
6207;SDS011;3137;51.550;7.060;2023-09-19T12:03:56;8.30;;;2.80;;
6207;SDS011;3137;51.550;7.060;2023-09-19T12:06:26;2.97;;;2.70;;
6207;SDS011;3137;51.550;7.060;2023-09-19T12:08:53;4.43;;;2.33;;
6207;SDS011;3137;51.550;7.060;2023-09-19T12:11:21;7.53;;;2.67;;
6207;SDS011;3137;51.550;7.060;2023-09-19T12:13:49;3.60;;;2.57;;
6207;SDS011;3137;51.550;7.060;2023-09-19T12:16:17;6.33;;;2.37;;
6207;SDS011;3137;51.550;7.060;2023-09-19T12:18:45;8.60;;;3.30;;
6207;SDS011;3137;51.550;7.060;2023-09-19T12:24:06;4.50;;;2.60;;
6207;SDS011;3137;51.550;7.060;2023-09-19T12:26:40;5.00;;;2.70;;
6207;SDS011;3137;51.550;7.060;2023-09-19T12:29:11;10.13;;;2.60;;
6207;SDS011;3137;51.550;7.060;2023-09-19T12:31:55;10.60;;;2.83;;
6207;SDS011;3137;51.550;7.060;2023-09-19T12:34:30;5.90;;;2.80;;
6207;SDS011;3137;51.550;7.060;2023-09-19T12:39:50;2.20;;;2.10;;
6207;SDS011;3137;51.550;7.060;2023-09-19T12:42:23;3.83;;;2.27;;
6207;SDS011;3137;51.550;7.060;2023-09-19T12:44:51;6.90;;;2.20;;
6207;SDS011;3137;51.550;7.060;2023-09-19T12:47:27;4.50;;;2.07;;
6207;SDS011;3137;51.550;7.060;2023-09-19T12:50:14;2.73;;;2.53;;
6207;SDS011;3137;51.550;7.060;2023-09-19T12:52:50;3.33;;;2.13;;
6207;SDS011;3137;51.550;7.060;2023-09-19T12:55:27;7.33;;;2.53;;
6207;SDS011;3137;51.550;7.060;2023-09-19T12:58:16;2.23;;;2.03;;
6207;SDS011;3137;51.550;7.060;2023-09-19T13:00:42;6.80;;;2.20;;
6207;SDS011;3137;51.550;7.060;2023-09-19T13:03:15;2.40;;;2.30;;
6207;SDS011;3137;51.550;7.060;2023-09-19T13:05:56;25.60;;;4.50;;
6207;SDS011;3137;51.550;7.060;2023-09-19T13:08:25;2.20;;;2.10;;
6207;SDS011;3137;51.550;7.060;2023-09-19T13:13:43;4.53;;;2.63;;
6207;SDS011;3137;51.550;7.060;2023-09-19T13:16:16;7.70;;;2.50;;
6207;SDS011;3137;51.550;7.060;2023-09-19T13:18:50;7.60;;;2.03;;
6207;SDS011;3137;51.550;7.060;2023-09-19T13:21:32;4.83;;;2.40;;
6207;SDS011;3137;51.550;7.060;2023-09-19T13:24:22;15.07;;;2.63;;
6207;SDS011;3137;51.550;7.060;2023-09-19T13:26:54;3.07;;;2.00;;
6207;SDS011;3137;51.550;7.060;2023-09-19T13:29:21;5.27;;;2.27;;
6207;SDS011;3137;51.550;7.060;2023-09-19T13:31:48;3.47;;;1.90;;
6207;SDS011;3137;51.550;7.060;2023-09-19T13:34:16;1.80;;;1.70;;
6207;SDS011;3137;51.550;7.060;2023-09-19T13:36:43;13.20;;;1.83;;
6207;SDS011;3137;51.550;7.060;2023-09-19T13:39:10;4.10;;;2.23;;
6207;SDS011;3137;51.550;7.060;2023-09-19T13:41:39;4.97;;;1.73;;
6207;SDS011;3137;51.550;7.060;2023-09-19T13:44:05;11.87;;;1.83;;
6207;SDS011;3137;51.550;7.060;2023-09-19T13:46:32;5.33;;;1.67;;
6207;SDS011;3137;51.550;7.060;2023-09-19T13:49:01;6.73;;;2.10;;
6207;SDS011;3137;51.550;7.060;2023-09-19T13:51:32;2.90;;;2.07;;
6207;SDS011;3137;51.550;7.060;2023-09-19T13:53:58;6.33;;;2.00;;
6207;SDS011;3137;51.550;7.060;2023-09-19T13:56:28;5.63;;;2.20;;
6207;SDS011;3137;51.550;7.060;2023-09-19T13:58:54;1.97;;;1.97;;
6207;SDS011;3137;51.550;7.060;2023-09-19T14:01:21;4.13;;;2.03;;
6207;SDS011;3137;51.550;7.060;2023-09-19T14:03:47;5.37;;;2.03;;
6207;SDS011;3137;51.550;7.060;2023-09-19T14:06:17;3.20;;;1.63;;
6207;SDS011;3137;51.550;7.060;2023-09-19T14:08:44;6.13;;;1.90;;
6207;SDS011;3137;51.550;7.060;2023-09-19T14:11:14;6.07;;;2.10;;
6207;SDS011;3137;51.550;7.060;2023-09-19T14:13:42;11.17;;;2.07;;
6207;SDS011;3137;51.550;7.060;2023-09-19T14:16:13;2.87;;;1.80;;
6207;SDS011;3137;51.550;7.060;2023-09-19T14:18:39;6.33;;;1.40;;
6207;SDS011;3137;51.550;7.060;2023-09-19T14:21:06;2.00;;;1.43;;
6207;SDS011;3137;51.550;7.060;2023-09-19T14:23:40;1.43;;;1.43;;
6207;SDS011;3137;51.550;7.060;2023-09-19T14:26:08;1.57;;;1.57;;
6207;SDS011;3137;51.550;7.060;2023-09-19T14:28:35;7.10;;;1.57;;
6207;SDS011;3137;51.550;7.060;2023-09-19T14:31:05;2.10;;;1.80;;
6207;SDS011;3137;51.550;7.060;2023-09-19T14:33:33;4.57;;;1.77;;
6207;SDS011;3137;51.550;7.060;2023-09-19T14:36:06;4.23;;;1.80;;
6207;SDS011;3137;51.550;7.060;2023-09-19T14:38:35;2.07;;;1.40;;
6207;SDS011;3137;51.550;7.060;2023-09-19T14:41:03;4.43;;;2.27;;
6207;SDS011;3137;51.550;7.060;2023-09-19T14:43:32;1.90;;;1.63;;
6207;SDS011;3137;51.550;7.060;2023-09-19T14:46:05;1.87;;;1.77;;
6207;SDS011;3137;51.550;7.060;2023-09-19T14:48:38;1.10;;;1.10;;
6207;SDS011;3137;51.550;7.060;2023-09-19T14:51:05;1.60;;;1.20;;
6207;SDS011;3137;51.550;7.060;2023-09-19T14:53:35;3.90;;;1.80;;
6207;SDS011;3137;51.550;7.060;2023-09-19T14:56:04;2.03;;;1.63;;
6207;SDS011;3137;51.550;7.060;2023-09-19T14:58:31;5.37;;;1.93;;
6207;SDS011;3137;51.550;7.060;2023-09-19T15:01:02;4.00;;;1.60;;
6207;SDS011;3137;51.550;7.060;2023-09-19T15:03:29;7.47;;;1.97;;
6207;SDS011;3137;51.550;7.060;2023-09-19T15:06:00;3.23;;;1.40;;
6207;SDS011;3137;51.550;7.060;2023-09-19T15:08:31;3.83;;;1.17;;
6207;SDS011;3137;51.550;7.060;2023-09-19T15:11:01;15.67;;;1.37;;
6207;SDS011;3137;51.550;7.060;2023-09-19T15:13:31;1.90;;;1.80;;
6207;SDS011;3137;51.550;7.060;2023-09-19T15:16:00;1.20;;;1.20;;
6207;SDS011;3137;51.550;7.060;2023-09-19T15:18:28;3.27;;;1.47;;
6207;SDS011;3137;51.550;7.060;2023-09-19T15:21:00;1.30;;;1.20;;
6207;SDS011;3137;51.550;7.060;2023-09-19T15:23:27;1.60;;;1.50;;
6207;SDS011;3137;51.550;7.060;2023-09-19T15:25:58;3.10;;;1.63;;
6207;SDS011;3137;51.550;7.060;2023-09-19T15:28:24;1.60;;;1.40;;
6207;SDS011;3137;51.550;7.060;2023-09-19T15:30:57;3.20;;;1.23;;
6207;SDS011;3137;51.550;7.060;2023-09-19T15:33:43;2.33;;;1.30;;
6207;SDS011;3137;51.550;7.060;2023-09-19T15:36:10;1.57;;;1.47;;
6207;SDS011;3137;51.550;7.060;2023-09-19T15:41:37;4.90;;;1.53;;
6207;SDS011;3137;51.550;7.060;2023-09-19T15:44:15;7.10;;;1.47;;
6207;SDS011;3137;51.550;7.060;2023-09-19T15:46:43;1.37;;;1.37;;
6207;SDS011;3137;51.550;7.060;2023-09-19T15:49:11;1.37;;;1.27;;
6207;SDS011;3137;51.550;7.060;2023-09-19T15:51:38;5.30;;;1.67;;
6207;SDS011;3137;51.550;7.060;2023-09-19T15:54:10;1.93;;;1.93;;
6207;SDS011;3137;51.550;7.060;2023-09-19T15:56:40;1.53;;;1.47;;
6207;SDS011;3137;51.550;7.060;2023-09-19T15:59:10;1.30;;;1.30;;
6207;SDS011;3137;51.550;7.060;2023-09-19T16:01:41;1.57;;;1.57;;
6207;SDS011;3137;51.550;7.060;2023-09-19T16:04:10;1.50;;;1.40;;
6207;SDS011;3137;51.550;7.060;2023-09-19T16:06:38;1.87;;;1.70;;
6207;SDS011;3137;51.550;7.060;2023-09-19T16:09:05;1.83;;;1.40;;
6207;SDS011;3137;51.550;7.060;2023-09-19T16:11:32;15.13;;;1.40;;
6207;SDS011;3137;51.550;7.060;2023-09-19T16:14:00;1.13;;;1.13;;
6207;SDS011;3137;51.550;7.060;2023-09-19T16:16:28;4.10;;;1.47;;
6207;SDS011;3137;51.550;7.060;2023-09-19T16:19:01;1.07;;;1.07;;
6207;SDS011;3137;51.550;7.060;2023-09-19T16:21:30;1.37;;;1.37;;
6207;SDS011;3137;51.550;7.060;2023-09-19T16:23:59;7.70;;;1.50;;